createdAt,value
2023-02-08T00:00:58.940Z,72.25
2023-02-08T00:03:28.160Z,72.24
2023-02-08T00:05:55.181Z,72.28
2023-02-08T00:08:22.205Z,72.20
2023-02-08T00:10:50.319Z,72.57
2023-02-08T00:13:17.813Z,72.75
2023-02-08T00:15:46.935Z,72.38
2023-02-08T00:18:14.844Z,72.48
2023-02-08T00:20:43.232Z,72.90
2023-02-08T00:23:11.448Z,72.38
2023-02-08T00:25:39.853Z,72.54
2023-02-08T00:28:09.485Z,72.32
2023-02-08T00:30:36.666Z,72.87
2023-02-08T00:33:04.726Z,72.84
2023-02-08T00:35:32.095Z,72.95
2023-02-08T00:37:59.166Z,72.97
2023-02-08T00:40:27.038Z,72.88
2023-02-08T00:42:54.150Z,73.02
2023-02-08T00:45:21.343Z,72.76
2023-02-08T00:47:48.339Z,72.89
2023-02-08T00:50:15.516Z,73.03
2023-02-08T00:52:42.515Z,73.28
2023-02-08T00:55:09.659Z,73.19
2023-02-08T00:57:36.773Z,73.06
2023-02-08T01:00:06.241Z,72.84
2023-02-08T01:02:33.629Z,73.00
2023-02-08T01:05:00.743Z,73.17
2023-02-08T01:07:27.840Z,73.37
2023-02-08T01:09:54.849Z,73.17
2023-02-08T01:12:21.854Z,73.56
2023-02-08T01:14:49.272Z,73.22
2023-02-08T01:17:16.348Z,72.92
2023-02-08T01:19:43.358Z,73.07
2023-02-08T01:22:10.379Z,72.88
2023-02-08T01:24:37.432Z,73.03
2023-02-08T01:27:04.644Z,73.51
2023-02-08T01:29:31.714Z,72.85
2023-02-08T01:31:58.781Z,73.30
2023-02-08T01:34:25.855Z,73.34
2023-02-08T01:36:52.877Z,73.65
2023-02-08T01:39:19.961Z,73.90
2023-02-08T01:41:47.205Z,73.92
2023-02-08T01:44:14.149Z,74.02
2023-02-08T01:46:48.777Z,74.06
2023-02-08T01:49:30.308Z,73.48
2023-02-08T01:52:19.249Z,73.12
2023-02-08T01:55:14.122Z,73.40
2023-02-08T01:57:43.107Z,73.15
2023-02-08T02:00:17.894Z,73.42
2023-02-08T02:02:47.856Z,73.97
2023-02-08T02:05:17.497Z,74.07
2023-02-08T02:07:44.995Z,73.74
2023-02-08T02:10:25.435Z,74.00
2023-02-08T02:12:55.136Z,74.09
2023-02-08T02:15:22.404Z,73.69
2023-02-08T02:17:49.813Z,73.81
2023-02-08T02:20:29.399Z,73.85
2023-02-08T02:23:20.808Z,73.84
2023-02-08T02:25:59.769Z,74.30
2023-02-08T02:28:52.883Z,74.48
2023-02-08T02:31:40.564Z,74.25
2023-02-08T02:35:05.475Z,74.41
2023-02-08T02:38:08.788Z,74.21
2023-02-08T02:40:50.399Z,73.83
2023-02-08T02:43:46.310Z,73.74
2023-02-08T02:46:35.295Z,73.96
2023-02-08T02:50:07.127Z,73.76
2023-02-08T02:53:05.928Z,74.12
2023-02-08T02:55:40.726Z,73.99
2023-02-08T02:58:10.763Z,73.83
2023-02-08T03:00:38.382Z,73.75
2023-02-08T03:03:07.085Z,73.64
2023-02-08T03:05:34.698Z,73.76
2023-02-08T03:08:39.439Z,73.46
2023-02-08T03:11:31.720Z,73.46
2023-02-08T03:14:36.691Z,73.97
2023-02-08T03:17:27.668Z,74.28
2023-02-08T03:20:16.598Z,73.13
2023-02-08T03:23:10.520Z,72.93
2023-02-08T03:25:58.022Z,73.69
2023-02-08T03:28:28.615Z,73.70
2023-02-08T03:31:21.490Z,73.40
2023-02-08T03:34:13.217Z,72.38
2023-02-08T03:36:55.816Z,72.89
2023-02-08T03:39:28.895Z,73.84
2023-02-08T03:42:01.257Z,73.89
2023-02-08T03:44:41.813Z,73.84
2023-02-08T03:47:19.663Z,73.08
2023-02-08T03:49:54.128Z,73.31
2023-02-08T03:52:23.165Z,73.98
2023-02-08T03:55:01.209Z,74.27
2023-02-08T03:57:38.379Z,74.37
2023-02-08T04:00:16.303Z,73.88
2023-02-08T04:03:09.228Z,74.49
2023-02-08T04:05:37.226Z,74.24
2023-02-08T04:08:04.732Z,74.46
2023-02-08T04:10:31.907Z,74.60
2023-02-08T04:12:59.282Z,74.26
2023-02-08T04:15:27.437Z,74.41
2023-02-08T04:17:55.074Z,73.67
2023-02-08T04:20:22.263Z,73.92
2023-02-08T04:22:49.847Z,74.54
2023-02-08T04:25:17.102Z,74.45
2023-02-08T04:27:44.157Z,74.45
2023-02-08T04:30:12.387Z,73.83
2023-02-08T04:32:39.404Z,74.25
2023-02-08T04:35:07.196Z,74.74
2023-02-08T04:37:34.526Z,74.76
2023-02-08T04:40:01.661Z,75.32
2023-02-08T04:42:28.827Z,75.27
2023-02-08T04:44:55.972Z,75.18
2023-02-08T04:47:23.347Z,75.37
2023-02-08T04:49:50.348Z,75.22
2023-02-08T04:52:17.358Z,75.63
2023-02-08T04:54:44.402Z,75.78
2023-02-08T04:57:15.355Z,75.38
2023-02-08T04:59:42.575Z,75.55
2023-02-08T05:02:10.004Z,75.14
2023-02-08T05:04:37.021Z,75.78
2023-02-08T05:07:04.150Z,76.12
2023-02-08T05:09:32.649Z,76.59
2023-02-08T05:11:59.663Z,76.28
2023-02-08T05:14:26.679Z,76.51
2023-02-08T05:16:53.717Z,76.67
2023-02-08T05:19:20.683Z,77.64
2023-02-08T05:21:47.697Z,76.90
2023-02-08T05:24:14.749Z,76.40
2023-02-08T05:26:42.116Z,76.70
2023-02-08T05:29:09.118Z,76.96
2023-02-08T05:31:36.534Z,76.85
2023-02-08T05:34:03.987Z,77.44
2023-02-08T05:36:31.038Z,77.74
2023-02-08T05:38:58.110Z,77.59
2023-02-08T05:41:25.191Z,77.67
2023-02-08T05:43:52.249Z,77.28
2023-02-08T05:46:19.318Z,77.23
2023-02-08T05:48:46.485Z,77.61
2023-02-08T05:51:13.520Z,78.18
2023-02-08T05:53:40.600Z,78.56
2023-02-08T05:56:07.816Z,77.94
2023-02-08T05:58:35.258Z,78.11
2023-02-08T06:01:07.389Z,77.94
2023-02-08T06:03:34.367Z,77.96
2023-02-08T06:06:01.768Z,78.50
2023-02-08T06:08:28.868Z,78.58
2023-02-08T06:10:55.973Z,78.24
2023-02-08T06:13:23.153Z,77.89
2023-02-08T06:15:50.285Z,78.32
2023-02-08T06:18:18.527Z,78.58
2023-02-08T06:20:45.555Z,79.13
2023-02-08T06:23:12.654Z,78.61
2023-02-08T06:25:39.719Z,78.58
2023-02-08T06:28:08.916Z,78.51
2023-02-08T06:30:36.799Z,78.77
2023-02-08T06:33:04.851Z,78.62
2023-02-08T06:35:32.772Z,78.73
2023-02-08T06:37:59.917Z,78.51
2023-02-08T06:40:27.192Z,78.55
2023-02-08T06:42:54.189Z,78.35
2023-02-08T06:45:21.185Z,78.50
2023-02-08T06:47:48.185Z,78.14
2023-02-08T06:50:15.304Z,78.27
2023-02-08T06:52:42.352Z,78.24
2023-02-08T06:55:09.334Z,78.05
2023-02-08T06:57:36.394Z,78.17
2023-02-08T07:00:05.334Z,77.86
2023-02-08T07:02:32.776Z,77.51
2023-02-08T07:04:59.782Z,77.07
2023-02-08T07:07:28.070Z,76.78
2023-02-08T07:09:55.096Z,76.65
2023-02-08T07:12:22.106Z,76.24
2023-02-08T07:14:49.232Z,75.64
2023-02-08T07:17:16.328Z,75.82
2023-02-08T07:19:43.335Z,75.87
2023-02-08T07:22:10.377Z,75.58
2023-02-08T07:24:40.651Z,75.64
2023-02-08T07:27:10.593Z,75.39
2023-02-08T07:29:38.350Z,76.13
2023-02-08T07:32:07.413Z,75.87
2023-02-08T07:34:37.458Z,75.53
2023-02-08T07:37:04.848Z,75.27
2023-02-08T07:39:32.142Z,75.70
2023-02-08T07:41:59.891Z,75.48
2023-02-08T07:44:26.988Z,75.46
2023-02-08T07:46:54.049Z,75.07
2023-02-08T07:49:21.152Z,75.10
2023-02-08T07:51:48.176Z,75.41
2023-02-08T07:54:15.793Z,75.11
2023-02-08T07:56:42.858Z,74.60
2023-02-08T07:59:09.908Z,74.82
2023-02-08T08:01:37.014Z,74.50
2023-02-08T08:04:04.386Z,74.17
2023-02-08T08:06:31.408Z,74.29
2023-02-08T08:08:58.652Z,74.25
2023-02-08T08:11:25.711Z,74.08
2023-02-08T08:13:53.111Z,73.72
2023-02-08T08:16:20.826Z,73.71
2023-02-08T08:18:48.152Z,73.81
2023-02-08T08:21:16.756Z,73.83
2023-02-08T08:23:44.328Z,73.38
2023-02-08T08:26:16.162Z,73.55
2023-02-08T08:28:43.791Z,73.22
2023-02-08T08:31:16.744Z,72.83
2023-02-08T08:33:44.286Z,72.56
2023-02-08T08:36:11.510Z,72.38
2023-02-08T08:38:39.382Z,72.56
2023-02-08T08:41:12.650Z,72.80
2023-02-08T08:43:39.706Z,72.60
2023-02-08T08:46:10.629Z,72.43
2023-02-08T08:48:40.734Z,72.43
2023-02-08T08:51:07.755Z,72.25
2023-02-08T08:53:37.087Z,72.06
2023-02-08T08:56:05.723Z,72.18
2023-02-08T08:58:33.105Z,72.05
2023-02-08T09:01:00.589Z,72.16
2023-02-08T09:03:29.017Z,71.88
2023-02-08T09:05:56.909Z,72.16
2023-02-08T09:08:24.200Z,72.56
2023-02-08T09:10:51.204Z,71.56
2023-02-08T09:13:21.855Z,72.08
2023-02-08T09:15:49.922Z,72.53
2023-02-08T09:18:17.066Z,72.43
2023-02-08T09:20:44.475Z,72.21
2023-02-08T09:23:12.783Z,72.17
2023-02-08T09:25:40.174Z,72.12
2023-02-08T09:28:07.257Z,72.03
2023-02-08T09:30:34.295Z,71.72
2023-02-08T09:33:01.319Z,71.68
2023-02-08T09:35:28.373Z,71.60
2023-02-08T09:37:58.171Z,71.68
2023-02-08T09:40:36.031Z,71.57
2023-02-08T09:43:44.576Z,71.43
2023-02-08T09:46:36.025Z,71.06
2023-02-08T09:49:09.561Z,70.71
2023-02-08T09:51:41.902Z,70.85
2023-02-08T09:54:29.839Z,70.13
2023-02-08T09:57:01.511Z,70.13
2023-02-08T09:59:32.775Z,69.81
2023-02-08T10:02:27.393Z,69.41
2023-02-08T10:05:00.242Z,69.26
2023-02-08T10:07:28.978Z,69.33
2023-02-08T10:10:02.260Z,69.04
2023-02-08T10:12:43.580Z,68.39
2023-02-08T10:15:16.412Z,68.02
2023-02-08T10:18:19.596Z,67.27
2023-02-08T10:21:24.793Z,66.54
2023-02-08T10:24:22.140Z,66.37
2023-02-08T10:27:16.101Z,65.84
2023-02-08T10:30:24.925Z,65.20
2023-02-08T10:33:02.975Z,64.15
2023-02-08T10:35:39.196Z,63.15
2023-02-08T10:38:31.935Z,62.52
2023-02-08T10:41:07.938Z,62.57
2023-02-08T10:43:45.993Z,62.80
2023-02-08T10:46:35.602Z,62.27
2023-02-08T10:49:31.946Z,61.91
2023-02-08T10:51:58.989Z,61.88
2023-02-08T10:54:26.032Z,62.31
2023-02-08T10:57:12.985Z,62.40
2023-02-08T10:59:51.176Z,61.99
2023-02-08T11:02:26.814Z,62.09
2023-02-08T11:05:12.773Z,62.01
2023-02-08T11:07:39.942Z,61.65
2023-02-08T11:10:16.130Z,61.45
2023-02-08T11:13:14.908Z,61.30
2023-02-08T11:15:52.707Z,61.38
2023-02-08T11:18:37.808Z,61.39
2023-02-08T11:21:20.853Z,61.59
2023-02-08T11:23:55.571Z,61.68
2023-02-08T11:26:33.543Z,61.64
2023-02-08T11:29:27.593Z,62.14
2023-02-08T11:32:02.739Z,62.06
2023-02-08T11:34:38.529Z,61.73
2023-02-08T11:37:25.941Z,61.96
2023-02-08T11:40:01.316Z,62.17
2023-02-08T11:42:35.957Z,62.40
2023-02-08T11:45:04.861Z,62.34
2023-02-08T11:47:37.482Z,62.93
2023-02-08T11:50:08.278Z,62.53
2023-02-08T11:52:41.429Z,62.36
2023-02-08T11:55:16.748Z,60.37
2023-02-08T11:58:17.991Z,58.83
2023-02-08T12:01:05.017Z,57.11
2023-02-08T12:03:38.802Z,56.75
2023-02-08T12:06:30.390Z,55.56
2023-02-08T12:09:03.124Z,54.89
2023-02-08T12:11:43.437Z,54.28
2023-02-08T12:14:40.949Z,53.67
2023-02-08T12:17:26.872Z,53.08
2023-02-08T12:20:30.591Z,52.86
2023-02-08T12:23:43.375Z,52.74
2023-02-08T12:26:31.000Z,52.15
2023-02-08T12:29:33.134Z,52.49
2023-02-08T12:32:11.369Z,52.22
2023-02-08T12:35:41.432Z,51.97
2023-02-08T12:38:54.531Z,51.92
2023-02-08T12:42:03.744Z,51.22
2023-02-08T12:44:54.144Z,51.01
2023-02-08T12:48:04.035Z,50.44
2023-02-08T12:50:56.129Z,49.70
2023-02-08T12:53:54.726Z,49.43
2023-02-08T12:56:29.703Z,48.87
2023-02-08T12:59:11.894Z,48.00
2023-02-08T13:01:47.294Z,47.58
2023-02-08T13:04:23.165Z,47.24
2023-02-08T13:07:08.770Z,46.81
2023-02-08T13:09:44.424Z,46.59
2023-02-08T13:12:38.253Z,46.86
2023-02-08T13:15:30.674Z,46.84
2023-02-08T13:18:12.195Z,47.27
2023-02-08T13:20:53.677Z,46.52
2023-02-08T13:23:38.449Z,47.08
2023-02-08T13:26:31.735Z,46.66
2023-02-08T13:29:02.738Z,46.79
2023-02-08T13:31:39.026Z,46.61
2023-02-08T13:34:28.079Z,46.18
2023-02-08T13:37:03.641Z,46.25
2023-02-08T13:39:45.599Z,46.50
2023-02-08T13:42:48.484Z,45.87
2023-02-08T13:45:39.564Z,46.17
2023-02-08T13:48:14.395Z,46.02
2023-02-08T13:50:54.296Z,46.26
2023-02-08T13:53:39.890Z,45.90
2023-02-08T13:56:12.401Z,46.14
2023-02-08T13:58:39.492Z,45.86
2023-02-08T14:01:15.235Z,46.29
2023-02-08T14:03:42.508Z,46.46
2023-02-08T14:06:28.131Z,46.69
2023-02-08T14:09:26.905Z,46.34
2023-02-08T14:12:03.577Z,46.37
2023-02-08T14:14:38.572Z,46.52
2023-02-08T14:17:05.471Z,46.69
2023-02-08T14:19:36.610Z,46.87
2023-02-08T14:22:17.284Z,46.93
2023-02-08T14:25:00.527Z,47.25
2023-02-08T14:27:50.694Z,47.52
2023-02-08T14:30:17.597Z,47.69
2023-02-08T14:33:08.695Z,47.88
2023-02-08T14:35:50.586Z,48.00
2023-02-08T14:38:20.769Z,48.04
2023-02-08T14:40:55.124Z,48.54
2023-02-08T14:43:37.991Z,48.56
2023-02-08T14:46:39.179Z,48.47
2023-02-08T14:49:15.904Z,48.29
2023-02-08T14:51:56.579Z,48.35
2023-02-08T14:54:39.825Z,48.40
2023-02-08T14:57:28.124Z,48.71
2023-02-08T14:59:59.074Z,48.71
2023-02-08T15:02:37.177Z,48.89
2023-02-08T15:05:09.897Z,49.15
2023-02-08T15:07:57.432Z,49.87
2023-02-08T15:10:27.085Z,50.15
2023-02-08T15:13:00.680Z,50.76
2023-02-08T15:15:41.586Z,50.73
2023-02-08T15:18:20.509Z,50.97
2023-02-08T15:21:03.633Z,50.64
2023-02-08T15:23:30.980Z,50.64
2023-02-08T15:26:19.676Z,50.70
2023-02-08T15:28:46.854Z,50.71
2023-02-08T15:31:19.250Z,51.05
2023-02-08T15:33:47.470Z,51.70
2023-02-08T15:36:24.650Z,52.03
2023-02-08T15:38:52.067Z,51.73
2023-02-08T15:41:34.373Z,51.83
2023-02-08T15:44:30.130Z,51.62
2023-02-08T15:47:04.332Z,51.65
2023-02-08T15:49:43.589Z,52.00
2023-02-08T15:52:19.536Z,51.76
2023-02-08T15:54:47.222Z,51.84
2023-02-08T15:57:38.753Z,51.80
2023-02-08T16:00:13.239Z,51.91
2023-02-08T16:02:41.289Z,52.47
2023-02-08T16:05:26.819Z,52.18
2023-02-08T16:07:54.696Z,52.47
2023-02-08T16:10:46.637Z,52.78
2023-02-08T16:13:30.314Z,52.86
2023-02-08T16:16:20.300Z,53.02
2023-02-08T16:18:58.662Z,53.18
2023-02-08T16:21:25.523Z,52.85
2023-02-08T16:23:56.714Z,53.05
2023-02-08T16:26:32.270Z,53.40
2023-02-08T16:29:02.807Z,53.29
2023-02-08T16:31:33.303Z,53.69
2023-02-08T16:34:07.658Z,53.62
2023-02-08T16:36:40.535Z,53.74
2023-02-08T16:39:19.482Z,53.91
2023-02-08T16:42:06.376Z,53.97
2023-02-08T16:45:23.535Z,54.04
2023-02-08T16:47:58.378Z,54.25
2023-02-08T16:50:28.482Z,53.95
2023-02-08T16:53:04.116Z,53.75
2023-02-08T16:55:36.364Z,53.73
2023-02-08T16:58:03.456Z,54.16
2023-02-08T17:00:33.322Z,53.99
2023-02-08T17:03:01.258Z,53.87
2023-02-08T17:05:35.261Z,53.97
2023-02-08T17:08:09.952Z,53.85
2023-02-08T17:10:38.093Z,53.85
2023-02-08T17:13:19.753Z,54.27
2023-02-08T17:15:49.587Z,54.44
2023-02-08T17:18:16.746Z,54.66
2023-02-08T17:20:44.115Z,54.34
2023-02-08T17:23:11.719Z,54.71
2023-02-08T17:25:39.297Z,54.67
2023-02-08T17:28:14.380Z,55.08
2023-02-08T17:30:43.753Z,55.35
2023-02-08T17:33:18.298Z,55.71
2023-02-08T17:35:51.405Z,56.27
2023-02-08T17:38:20.085Z,56.73
2023-02-08T17:40:48.021Z,56.14
2023-02-08T17:43:15.146Z,56.09
2023-02-08T17:45:43.847Z,56.02
2023-02-08T17:48:13.530Z,55.88
2023-02-08T17:50:47.777Z,56.35
2023-02-08T17:53:15.989Z,56.63
2023-02-08T17:55:47.222Z,56.33
2023-02-08T17:58:14.398Z,56.44
2023-02-08T18:00:41.462Z,56.74
2023-02-08T18:03:08.638Z,56.96
2023-02-08T18:05:36.951Z,57.03
2023-02-08T18:08:04.076Z,57.09
2023-02-08T18:10:31.152Z,57.64
2023-02-08T18:12:59.087Z,58.51
2023-02-08T18:15:26.069Z,58.27
2023-02-08T18:17:53.156Z,59.57
2023-02-08T18:20:20.578Z,59.86
2023-02-08T18:22:47.690Z,59.94
2023-02-08T18:25:16.144Z,59.72
2023-02-08T18:27:43.520Z,60.09
2023-02-08T18:30:12.394Z,60.07
2023-02-08T18:32:39.867Z,60.05
2023-02-08T18:35:08.797Z,60.10
2023-02-08T18:37:37.659Z,60.38
2023-02-08T18:40:07.631Z,60.05
2023-02-08T18:42:36.335Z,60.33
2023-02-08T18:45:06.928Z,60.28
2023-02-08T18:47:36.533Z,60.20
2023-02-08T18:50:04.055Z,59.83
2023-02-08T18:52:31.721Z,59.84
2023-02-08T18:54:58.938Z,59.98
2023-02-08T18:57:25.942Z,60.20
2023-02-08T18:59:54.300Z,59.43
2023-02-08T19:02:23.061Z,59.29
2023-02-08T19:04:50.219Z,59.24
2023-02-08T19:07:17.216Z,59.03
2023-02-08T19:09:44.344Z,59.05
2023-02-08T19:12:15.666Z,59.26
2023-02-08T19:14:43.713Z,59.56
2023-02-08T19:17:13.581Z,59.42
2023-02-08T19:19:41.991Z,59.84
2023-02-08T19:22:09.551Z,60.08
2023-02-08T19:24:36.618Z,59.87
2023-02-08T19:27:03.985Z,59.82
2023-02-08T19:29:32.682Z,60.72
2023-02-08T19:31:59.748Z,61.07
2023-02-08T19:34:26.768Z,61.47
2023-02-08T19:36:54.862Z,61.89
2023-02-08T19:39:26.149Z,62.68
2023-02-08T19:41:54.680Z,62.09
2023-02-08T19:44:22.806Z,62.25
2023-02-08T19:46:53.952Z,62.06
2023-02-08T19:49:25.921Z,62.15
2023-02-08T19:51:53.543Z,61.58
2023-02-08T19:54:21.478Z,61.20
2023-02-08T19:56:50.409Z,61.08
2023-02-08T19:59:27.722Z,60.93
2023-02-08T20:01:55.638Z,60.71
2023-02-08T20:04:23.615Z,61.02
2023-02-08T20:06:53.727Z,61.19
2023-02-08T20:09:21.304Z,61.56
2023-02-08T20:11:57.356Z,61.73
2023-02-08T20:14:31.137Z,61.76
2023-02-08T20:16:58.801Z,61.48
2023-02-08T20:19:26.349Z,61.79
2023-02-08T20:21:53.641Z,61.62
2023-02-08T20:24:21.496Z,61.56
2023-02-08T20:26:49.327Z,61.69
2023-02-08T20:29:17.241Z,61.85
2023-02-08T20:31:47.703Z,61.65
2023-02-08T20:34:19.001Z,61.62
2023-02-08T20:37:04.556Z,61.79
2023-02-08T20:39:34.826Z,61.48
2023-02-08T20:42:01.839Z,61.59
2023-02-08T20:44:28.863Z,61.84
2023-02-08T20:46:56.007Z,62.00
2023-02-08T20:49:25.718Z,62.41
2023-02-08T20:51:55.831Z,62.17
2023-02-08T20:54:24.812Z,62.06
2023-02-08T20:56:53.816Z,61.87
2023-02-08T20:59:21.276Z,62.34
2023-02-08T21:01:48.568Z,62.21
2023-02-08T21:04:17.199Z,62.35
2023-02-08T21:06:46.246Z,62.49
2023-02-08T21:09:15.952Z,62.68
2023-02-08T21:11:44.097Z,62.79
2023-02-08T21:14:18.559Z,62.83
2023-02-08T21:16:52.444Z,62.72
2023-02-08T21:19:20.845Z,62.97
2023-02-08T21:21:56.997Z,62.98
2023-02-08T21:24:24.811Z,63.36
2023-02-08T21:26:56.580Z,63.28
2023-02-08T21:29:24.646Z,63.01
2023-02-08T21:31:54.148Z,63.09
2023-02-08T21:34:21.652Z,62.73
2023-02-08T21:36:48.802Z,62.83
2023-02-08T21:39:15.785Z,62.69
2023-02-08T21:41:42.808Z,62.95
2023-02-08T21:44:10.974Z,62.54
2023-02-08T21:46:38.140Z,62.52
2023-02-08T21:49:23.755Z,62.69
2023-02-08T21:52:09.884Z,62.57
2023-02-08T21:54:43.036Z,62.72
2023-02-08T21:57:20.797Z,62.48
2023-02-08T21:59:51.201Z,62.82
2023-02-08T22:02:25.909Z,62.64
2023-02-08T22:04:55.356Z,62.88
2023-02-08T22:07:23.616Z,63.08
2023-02-08T22:09:51.276Z,63.52
2023-02-08T22:12:21.052Z,63.25
2023-02-08T22:14:49.516Z,63.09
2023-02-08T22:17:17.017Z,63.21
2023-02-08T22:19:44.299Z,63.35
2023-02-08T22:22:12.441Z,63.55
2023-02-08T22:24:39.734Z,63.38
2023-02-08T22:27:06.845Z,63.38
2023-02-08T22:29:34.240Z,63.23
2023-02-08T22:32:01.581Z,63.41
2023-02-08T22:34:29.113Z,64.05
2023-02-08T22:36:56.164Z,63.81
2023-02-08T22:39:23.566Z,63.74
2023-02-08T22:41:50.668Z,63.70
2023-02-08T22:44:17.730Z,64.14
2023-02-08T22:46:44.891Z,64.57
2023-02-08T22:49:12.136Z,64.39
2023-02-08T22:51:39.164Z,64.30
2023-02-08T22:54:06.323Z,64.48
2023-02-08T22:56:33.445Z,64.66
2023-02-08T22:59:00.815Z,64.34
2023-02-08T23:01:28.654Z,64.57
2023-02-08T23:03:55.801Z,64.98
2023-02-08T23:06:22.843Z,65.12
2023-02-08T23:08:50.560Z,64.49
2023-02-08T23:11:18.370Z,64.40
2023-02-08T23:13:45.453Z,64.20
2023-02-08T23:16:15.157Z,64.61
2023-02-08T23:18:43.004Z,64.87
2023-02-08T23:21:15.546Z,64.53
2023-02-08T23:23:44.010Z,64.87
2023-02-08T23:26:15.243Z,65.00
2023-02-08T23:28:42.389Z,65.46
2023-02-08T23:31:12.544Z,65.10
2023-02-08T23:33:40.022Z,64.94
2023-02-08T23:36:11.285Z,65.27
2023-02-08T23:38:39.292Z,65.00
2023-02-08T23:41:10.872Z,64.66
2023-02-08T23:43:38.722Z,65.32
2023-02-08T23:46:12.049Z,65.28
2023-02-08T23:48:39.474Z,65.17
2023-02-08T23:51:08.050Z,64.99
2023-02-08T23:53:37.114Z,64.74
2023-02-08T23:56:10.287Z,64.51
2023-02-08T23:58:37.686Z,64.89
